Time;durP1;ratioP1;P1;durP2;ratioP2;P2;SDS_P1;SDS_P2;PMS_P1;PMS_P2;Temp;Humidity;BMP_temperature;BMP_pressure;BME280_temperature;BME280_humidity;BME280_pressure;Samples;Min_cycle;Max_cycle;Signal;HPM_P1;HPM_P2
2023/05/24 00:01:44;;;;;;;6.22;2.28;;;;;;;10.15;90.14;102388.00;5188445;28;20041;-68
2023/05/24 00:04:17;;;;;;;8.93;2.38;;;;;;;10.14;90.93;102386.31;5189143;28;21043;-68
2023/05/24 00:06:48;;;;;;;8.00;2.38;;;;;;;10.09;92.05;102377.91;5191688;28;20018;-68
2023/05/24 00:09:20;;;;;;;9.07;2.50;;;;;;;10.09;91.86;102377.91;5190603;28;20549;-68
2023/05/24 00:11:51;;;;;;;11.88;2.80;;;;;;;10.10;91.47;102371.72;5186930;28;20034;-68
2023/05/24 00:14:24;;;;;;;7.78;2.42;;;;;;;10.06;91.59;102381.53;5190857;28;20503;-68
2023/05/24 00:16:55;;;;;;;9.68;2.72;;;;;;;10.09;90.08;102368.28;5189229;28;20089;-68
2023/05/24 00:19:27;;;;;;;10.13;2.70;;;;;;;10.06;91.63;102359.75;5191156;28;20035;-68
2023/05/24 00:21:58;;;;;;;9.10;2.63;;;;;;;9.99;93.43;102351.41;5187073;28;20471;-67
2023/05/24 00:24:29;;;;;;;9.30;2.95;;;;;;;9.97;91.73;102367.22;5192692;28;20428;-67
2023/05/24 00:27:00;;;;;;;8.80;2.65;;;;;;;10.02;92.64;102359.09;5190628;28;20054;-68
2023/05/24 00:29:32;;;;;;;8.70;2.22;;;;;;;9.86;92.67;102330.34;5191730;28;20042;-68
2023/05/24 00:32:03;;;;;;;7.53;2.50;;;;;;;9.90;94.17;102352.78;5188347;28;20061;-67
2023/05/24 00:34:35;;;;;;;9.32;2.75;;;;;;;9.82;93.15;102349.78;5191164;28;20030;-68
2023/05/24 00:37:06;;;;;;;11.73;3.17;;;;;;;9.80;94.33;102354.22;5188959;28;20029;-68
2023/05/24 00:39:37;;;;;;;10.10;2.70;;;;;;;9.77;95.07;102358.81;5188103;28;20491;-68
2023/05/24 00:42:09;;;;;;;11.55;3.50;;;;;;;9.73;94.11;102347.66;5190106;28;20030;-68
2023/05/24 00:44:40;;;;;;;8.85;2.42;;;;;;;9.77;93.68;102351.78;5190963;28;20022;-67
2023/05/24 00:47:11;;;;;;;8.75;2.83;;;;;;;9.71;94.17;102344.31;5193315;28;20022;-68
2023/05/24 00:49:43;;;;;;;12.65;2.67;;;;;;;9.68;95.52;102341.84;5192826;28;20518;-68
2023/05/24 00:52:15;;;;;;;7.47;2.47;;;;;;;9.63;95.35;102349.13;5191795;28;20121;-67
2023/05/24 00:54:47;;;;;;;9.37;2.60;;;;;;;9.55;97.04;102341.72;5193220;28;20034;-67
2023/05/24 00:57:19;;;;;;;7.57;2.50;;;;;;;9.54;95.83;102349.63;5197572;28;20284;-69
2023/05/24 00:59:51;;;;;;;7.10;2.60;;;;;;;9.52;96.23;102347.13;5193431;28;20114;-68
2023/05/24 01:02:24;;;;;;;8.20;2.53;;;;;;;9.48;97.27;102337.75;5194206;28;20053;-67
2023/05/24 01:04:56;;;;;;;5.18;2.70;;;;;;;9.59;94.89;102337.16;5196221;28;20406;-68
2023/05/24 01:07:48;;;;;;;8.70;3.17;;;;;;;9.87;95.56;102337.25;5196240;28;20026;-68
2023/05/24 01:10:50;;;;;;;10.20;3.45;;;;;;;9.70;97.60;102340.84;5192830;28;20042;-68
2023/05/24 01:13:39;;;;;;;8.70;3.22;;;;;;;9.79;95.68;102334.22;5190261;28;20029;-67
2023/05/24 01:16:16;;;;;;;9.38;2.80;;;;;;;9.49;95.00;102308.03;5195177;28;20476;-68
2023/05/24 01:18:53;;;;;;;9.63;3.22;;;;;;;9.57;96.19;102332.00;5191753;28;20026;-68
2023/05/24 01:21:37;;;;;;;8.77;2.78;;;;;;;9.63;96.67;102336.06;5191316;28;20373;-67
2023/05/24 01:24:36;;;;;;;9.07;2.95;;;;;;;9.69;95.99;102330.44;5193062;28;20034;-68
2023/05/24 01:27:11;;;;;;;7.55;2.70;;;;;;;9.45;98.41;102336.16;5195292;28;20058;-68
2023/05/24 01:29:43;;;;;;;11.27;3.58;;;;;;;9.32;99.73;102329.06;5191365;28;20030;-68
2023/05/24 01:32:14;;;;;;;13.23;3.05;;;;;;;9.31;100.00;102325.63;5192940;28;20086;-68
2023/05/24 01:34:45;;;;;;;10.82;3.05;;;;;;;9.29;100.00;102327.50;5194758;28;20026;-68
2023/05/24 01:37:17;;;;;;;8.45;3.20;;;;;;;9.24;100.00;102337.34;5194977;28;20505;-68
2023/05/24 01:39:48;;;;;;;11.70;3.50;;;;;;;9.18;100.00;102329.84;5191700;28;20030;-68
2023/05/24 01:42:32;;;;;;;12.10;3.22;;;;;;;9.34;100.00;102320.22;5176378;28;20030;-68
2023/05/24 01:45:21;;;;;;;11.05;2.90;;;;;;;9.44;100.00;102324.00;5194270;28;20571;-68
2023/05/24 01:48:17;;;;;;;12.10;3.50;;;;;;;9.54;100.00;102324.31;5192628;28;20029;-68
2023/05/24 01:50:57;;;;;;;8.13;3.08;;;;;;;9.32;100.00;102329.06;5191557;28;20384;-68
2023/05/24 01:53:32;;;;;;;7.78;3.05;;;;;;;9.31;100.00;102316.94;5194441;28;20383;-68
2023/05/24 01:56:05;;;;;;;10.15;3.60;;;;;;;9.18;100.00;102311.53;5192650;28;20028;-68
2023/05/24 01:58:42;;;;;;;10.27;4.10;;;;;;;9.18;100.00;102315.00;5193331;28;20551;-68
2023/05/24 02:01:14;;;;;;;9.75;3.38;;;;;;;9.13;100.00;102324.00;5191413;28;21197;-68
2023/05/24 02:03:46;;;;;;;11.68;3.50;;;;;;;9.11;100.00;102329.34;5192511;28;20026;-68
2023/05/24 02:06:17;;;;;;;10.68;3.55;;;;;;;9.06;100.00;102320.06;5194024;28;20097;-68
2023/05/24 02:08:48;;;;;;;9.80;3.25;;;;;;;9.02;100.00;102320.25;5191561;28;20088;-68
2023/05/24 02:11:20;;;;;;;9.18;2.92;;;;;;;9.05;100.00;102332.28;5176434;28;20411;-68
2023/05/24 02:13:51;;;;;;;6.80;3.08;;;;;;;9.02;100.00;102322.84;5192934;28;20018;-68
2023/05/24 02:16:23;;;;;;;9.30;3.10;;;;;;;9.08;100.00;102336.50;5192404;28;20018;-68
2023/05/24 02:18:55;;;;;;;7.05;2.85;;;;;;;8.99;100.00;102340.47;5193814;28;20799;-68
2023/05/24 02:21:27;;;;;;;10.23;3.47;;;;;;;8.94;100.00;102338.13;5192774;28;20399;-68
2023/05/24 02:23:58;;;;;;;9.65;3.08;;;;;;;8.82;100.00;102320.44;5192406;28;20030;-68
2023/05/24 02:26:30;;;;;;;11.18;3.60;;;;;;;8.86;100.00;102331.59;5192491;28;20030;-68
2023/05/24 02:29:01;;;;;;;10.07;3.65;;;;;;;8.88;100.00;102334.97;5191298;28;20479;-68
2023/05/24 02:31:33;;;;;;;11.95;4.30;;;;;;;8.78;100.00;102335.44;5193339;28;20147;-68
2023/05/24 02:34:04;;;;;;;12.02;3.83;;;;;;;8.72;100.00;102340.19;5191942;28;20398;-68
2023/05/24 02:36:36;;;;;;;10.95;3.22;;;;;;;8.72;100.00;102332.34;5192232;28;20380;-68
2023/05/24 02:39:07;;;;;;;12.93;3.60;;;;;;;8.73;100.00;102331.41;5188673;28;20109;-67
2023/05/24 02:41:38;;;;;;;7.53;3.55;;;;;;;8.70;100.00;102337.63;5191803;28;20107;-67
2023/05/24 02:44:10;;;;;;;9.02;3.28;;;;;;;8.73;100.00;102328.78;5192801;28;20076;-68
2023/05/24 02:46:41;;;;;;;14.20;3.63;;;;;;;8.71;100.00;102338.47;5192250;28;20038;-68
2023/05/24 02:49:12;;;;;;;9.65;3.30;;;;;;;8.67;100.00;102340.41;5192177;28;20029;-67
2023/05/24 02:51:43;;;;;;;6.72;3.40;;;;;;;8.69;100.00;102337.72;5191408;28;20061;-67
2023/05/24 02:54:16;;;;;;;7.68;3.13;;;;;;;8.69;100.00;102343.78;5192852;28;20030;-67
2023/05/24 02:56:47;;;;;;;9.75;3.83;;;;;;;8.56;100.00;102323.59;5191645;28;20463;-67
2023/05/24 02:59:19;;;;;;;11.43;3.60;;;;;;;8.61;100.00;102345.97;5190576;28;20033;-66
2023/05/24 03:01:50;;;;;;;9.25;3.85;;;;;;;8.58;100.00;102340.91;5192878;28;20029;-67
2023/05/24 03:04:21;;;;;;;14.30;4.00;;;;;;;8.55;100.00;102342.81;5193047;28;20029;-67
2023/05/24 03:06:53;;;;;;;11.88;3.38;;;;;;;8.57;100.00;102349.66;5191649;28;20113;-67
2023/05/24 03:09:24;;;;;;;9.13;3.20;;;;;;;8.49;100.00;102337.00;5188229;28;20037;-67
2023/05/24 03:11:55;;;;;;;10.68;3.30;;;;;;;8.51;100.00;102347.38;5192215;28;20030;-67
2023/05/24 03:14:27;;;;;;;11.88;3.22;;;;;;;8.48;100.00;102343.13;5193162;28;20065;-67
2023/05/24 03:16:58;;;;;;;9.70;3.50;;;;;;;8.45;100.00;102335.47;5183200;28;20097;-67
2023/05/24 03:19:29;;;;;;;6.68;2.92;;;;;;;8.38;100.00;102328.88;5190804;28;20468;-67
2023/05/24 03:22:01;;;;;;;9.55;3.65;;;;;;;8.35;100.00;102333.38;5193526;28;20045;-67
2023/05/24 03:24:33;;;;;;;8.80;3.90;;;;;;;8.32;100.00;102331.78;5193049;28;20113;-67
2023/05/24 03:27:05;;;;;;;9.45;3.72;;;;;;;8.32;100.00;102333.53;5190228;28;20148;-67
2023/05/24 03:29:36;;;;;;;9.15;3.40;;;;;;;8.35;100.00;102330.78;5190918;28;20113;-67
2023/05/24 03:32:08;;;;;;;7.82;3.15;;;;;;;8.34;100.00;102339.53;5192012;28;20555;-67
2023/05/24 03:34:39;;;;;;;12.15;3.55;;;;;;;8.31;100.00;102334.47;5190886;28;20037;-67
2023/05/24 03:37:10;;;;;;;10.18;3.75;;;;;;;8.29;100.00;102326.69;5192293;28;20066;-67
2023/05/24 03:39:42;;;;;;;10.98;3.60;;;;;;;8.29;100.00;102331.91;5188735;28;20026;-67
2023/05/24 03:42:13;;;;;;;11.63;3.60;;;;;;;8.32;100.00;102323.94;5189584;28;20184;-67
2023/05/24 03:44:44;;;;;;;10.85;3.75;;;;;;;8.31;100.00;102324.03;5192849;28;20037;-67
2023/05/24 03:47:15;;;;;;;14.77;4.32;;;;;;;8.28;100.00;102328.47;5191360;28;20022;-67
2023/05/24 03:49:47;;;;;;;9.10;4.30;;;;;;;8.30;100.00;102328.41;5187520;28;20032;-67
2023/05/24 03:52:18;;;;;;;12.95;4.18;;;;;;;8.31;100.00;102329.25;5191820;28;20029;-67
2023/05/24 03:54:49;;;;;;;13.95;4.88;;;;;;;8.34;100.00;102323.88;5192384;28;20113;-67
2023/05/24 03:57:20;;;;;;;14.32;4.30;;;;;;;8.34;100.00;102331.72;5192889;28;20022;-67
2023/05/24 03:59:52;;;;;;;13.18;4.50;;;;;;;8.39;100.00;102333.19;5187439;28;20027;-67
2023/05/24 04:02:23;;;;;;;13.20;4.15;;;;;;;8.40;100.00;102337.47;5192468;28;20026;-67
2023/05/24 04:04:54;;;;;;;12.20;3.90;;;;;;;8.38;100.00;102326.28;5191992;28;20037;-67
2023/05/24 04:07:26;;;;;;;14.27;3.97;;;;;;;8.38;100.00;102333.28;5188574;28;20034;-67
2023/05/24 04:09:57;;;;;;;15.10;4.68;;;;;;;8.44;100.00;102331.16;5188900;28;20034;-66
2023/05/24 04:12:28;;;;;;;10.82;4.07;;;;;;;8.43;100.00;102332.09;5191578;28;20054;-67
2023/05/24 04:15:00;;;;;;;12.55;4.75;;;;;;;8.43;100.00;102328.63;5191458;28;20062;-67
2023/05/24 04:17:33;;;;;;;13.18;5.20;;;;;;;8.40;100.00;102327.03;5190220;28;20030;-67
2023/05/24 04:20:05;;;;;;;15.93;4.88;;;;;;;8.41;100.00;102326.13;5187131;28;20030;-66
2023/05/24 04:22:37;;;;;;;13.85;4.30;;;;;;;8.43;100.00;102328.63;5194184;28;20117;-67
2023/05/24 04:25:08;;;;;;;18.70;5.40;;;;;;;8.42;100.00;102324.34;5178736;28;20034;-66
2023/05/24 04:27:40;;;;;;;12.98;4.75;;;;;;;8.34;100.00;102321.25;5193576;28;20037;-66
2023/05/24 04:30:11;;;;;;;14.18;5.80;;;;;;;8.50;100.00;102341.31;5191585;28;20030;-67
2023/05/24 04:32:43;;;;;;;15.45;5.15;;;;;;;8.60;100.00;102339.06;5194608;28;20392;-67
2023/05/24 04:35:15;;;;;;;12.63;4.45;;;;;;;8.57;100.00;102328.78;5196902;28;20577;-66
2023/05/24 04:37:48;;;;;;;14.10;4.65;;;;;;;8.60;100.00;102332.97;5193993;28;20038;-67
2023/05/24 04:40:19;;;;;;;16.05;5.53;;;;;;;8.70;100.00;102328.94;5187226;28;20029;-67
2023/05/24 04:42:51;;;;;;;13.02;4.63;;;;;;;8.75;100.00;102333.03;5197419;28;20072;-66
2023/05/24 04:45:22;;;;;;;13.60;5.45;;;;;;;8.82;100.00;102324.84;5195048;28;20026;-67
2023/05/24 04:47:53;;;;;;;16.13;5.43;;;;;;;8.80;100.00;102317.09;5193095;28;20054;-67
2023/05/24 04:50:24;;;;;;;16.65;5.47;;;;;;;8.85;100.00;102325.53;5193402;28;20037;-67
2023/05/24 04:52:56;;;;;;;17.48;4.93;;;;;;;8.96;100.00;102338.84;5195436;28;20410;-67
2023/05/24 04:55:27;;;;;;;14.93;5.22;;;;;;;8.96;100.00;102336.25;5195663;28;20026;-67
2023/05/24 04:57:59;;;;;;;13.48;5.30;;;;;;;8.99;100.00;102327.41;5192647;28;20041;-67
2023/05/24 05:00:30;;;;;;;18.10;5.07;;;;;;;9.17;100.00;102338.63;5192852;28;20093;-67
2023/05/24 05:03:01;;;;;;;13.75;5.47;;;;;;;9.13;100.00;102332.72;5195212;28;20045;-67
2023/05/24 05:05:32;;;;;;;16.55;6.45;;;;;;;9.25;100.00;102331.19;5192166;28;20124;-67
2023/05/24 05:08:05;;;;;;;23.70;6.10;;;;;;;9.28;100.00;102323.19;5194964;28;20037;-67
2023/05/24 05:10:36;;;;;;;14.18;5.32;;;;;;;9.25;100.00;102328.59;5193952;28;20480;-68
2023/05/24 05:13:07;;;;;;;13.68;5.47;;;;;;;9.36;100.00;102328.84;5189291;28;20033;-67
2023/05/24 05:15:39;;;;;;;14.85;6.32;;;;;;;9.43;100.00;102332.78;5192043;28;20483;-69
2023/05/24 05:18:10;;;;;;;15.93;5.72;;;;;;;9.46;100.00;102329.16;5194854;28;20053;-68
2023/05/24 05:20:41;;;;;;;13.68;5.85;;;;;;;9.52;100.00;102331.44;5192084;28;20517;-68
2023/05/24 05:23:12;;;;;;;15.52;5.57;;;;;;;9.60;100.00;102333.59;5192029;28;20550;-67
2023/05/24 05:25:44;;;;;;;15.57;5.93;;;;;;;9.64;100.00;102340.34;5194762;28;20609;-67
2023/05/24 05:28:15;;;;;;;13.73;5.38;;;;;;;9.70;100.00;102343.47;5189426;28;20044;-67
2023/05/24 05:30:47;;;;;;;20.52;6.72;;;;;;;9.72;100.00;102341.59;5184844;28;20078;-68
2023/05/24 05:33:18;;;;;;;16.48;5.72;;;;;;;9.83;100.00;102343.59;5189418;28;20097;-71
2023/05/24 05:35:49;;;;;;;13.13;6.50;;;;;;;9.91;100.00;102338.75;5191743;28;20053;-67
2023/05/24 05:38:21;;;;;;;18.88;6.25;;;;;;;9.98;100.00;102336.63;5193313;28;20033;-67
2023/05/24 05:40:52;;;;;;;14.98;5.55;;;;;;;10.06;100.00;102338.78;5189284;28;20507;-68
2023/05/24 05:43:24;;;;;;;12.30;5.40;;;;;;;10.13;100.00;102335.72;5194475;28;20110;-67
2023/05/24 05:45:55;;;;;;;16.60;5.80;;;;;;;10.17;100.00;102336.38;5193549;28;20401;-68
2023/05/24 05:48:26;;;;;;;17.08;5.82;;;;;;;10.26;100.00;102338.47;5192033;28;20391;-68
2023/05/24 05:50:58;;;;;;;14.38;5.80;;;;;;;10.40;100.00;102343.75;5194169;28;20057;-67
2023/05/24 05:53:32;;;;;;;16.83;6.28;;;;;;;10.54;100.00;102342.09;5195137;28;20034;-67
2023/05/24 05:56:04;;;;;;;22.10;6.43;;;;;;;10.56;100.00;102348.06;5191235;28;20038;-67
2023/05/24 05:58:37;;;;;;;16.80;6.18;;;;;;;10.60;100.00;102345.16;5188121;28;20034;-67
2023/05/24 06:01:08;;;;;;;;;;;;;;;11.26;100.00;102348.94;5191543;28;20038;-67
2023/05/24 06:03:40;;;;;;;19.90;6.00;;;;;;;10.77;100.00;102338.91;5195154;28;19956;-67
2023/05/24 06:06:11;;;;;;;18.70;6.32;;;;;;;10.89;100.00;102351.22;5192650;28;20022;-67
2023/05/24 06:08:42;;;;;;;17.70;6.32;;;;;;;11.02;100.00;102356.53;5191581;28;20030;-67
2023/05/24 06:11:13;;;;;;;19.13;6.25;;;;;;;11.13;100.00;102358.50;5194231;28;20116;-67
2023/05/24 06:13:45;;;;;;;15.40;5.82;;;;;;;11.33;100.00;102371.22;5194277;28;20034;-67
2023/05/24 06:16:17;;;;;;;17.75;6.35;;;;;;;11.39;100.00;102370.81;5189037;28;20053;-67
2023/05/24 06:18:48;;;;;;;17.48;6.40;;;;;;;11.58;100.00;102367.00;5193469;28;20037;-67
2023/05/24 06:21:20;;;;;;;17.40;6.53;;;;;;;11.76;100.00;102373.69;5193166;28;20494;-68
2023/05/24 06:23:51;;;;;;;20.10;7.43;;;;;;;11.92;100.00;102369.13;5194572;28;20040;-68
2023/05/24 06:26:22;;;;;;;18.15;7.00;;;;;;;12.09;100.00;102372.44;5190674;28;20023;-68
2023/05/24 06:28:54;;;;;;;20.63;7.50;;;;;;;12.24;100.00;102366.16;5190817;28;20019;-67
2023/05/24 06:31:25;;;;;;;14.77;6.78;;;;;;;12.43;100.00;102370.19;5193645;28;20026;-67
2023/05/24 06:33:57;;;;;;;15.07;6.38;;;;;;;12.49;100.00;102372.38;5191374;28;20084;-67
2023/05/24 06:36:28;;;;;;;25.45;7.65;;;;;;;12.61;100.00;102371.50;5190368;28;20022;-68
2023/05/24 06:39:00;;;;;;;20.30;6.63;;;;;;;12.73;100.00;102364.56;5191881;28;20030;-68
2023/05/24 06:41:31;;;;;;;20.35;6.45;;;;;;;12.76;100.00;102369.59;5190370;28;20031;-67
2023/05/24 06:44:02;;;;;;;16.40;7.22;;;;;;;12.84;100.00;102369.91;5192787;28;20113;-68
2023/05/24 06:46:34;;;;;;;19.23;7.32;;;;;;;12.87;100.00;102367.06;5190199;28;20061;-68
2023/05/24 06:49:06;;;;;;;19.27;7.55;;;;;;;13.07;100.00;102365.69;5186490;28;20052;-67
2023/05/24 06:51:37;;;;;;;19.55;7.07;;;;;;;13.16;100.00;102359.75;5194782;28;20512;-68
2023/05/24 06:54:09;;;;;;;18.73;7.30;;;;;;;13.16;100.00;102372.91;5186971;28;20109;-68
2023/05/24 06:56:40;;;;;;;20.48;7.50;;;;;;;13.20;100.00;102377.00;5193572;28;20029;-67
2023/05/24 06:59:11;;;;;;;22.23;7.82;;;;;;;13.30;100.00;102370.16;5192924;28;20054;-67
2023/05/24 07:01:43;;;;;;;22.67;8.52;;;;;;;13.43;100.00;102380.66;5189131;28;20026;-68
2023/05/24 07:04:14;;;;;;;17.33;7.75;;;;;;;13.59;100.00;102367.19;5191457;28;20042;-68
2023/05/24 07:06:45;;;;;;;20.75;8.55;;;;;;;13.51;100.00;102351.13;5193386;28;20023;-68
2023/05/24 07:09:17;;;;;;;17.90;7.72;;;;;;;13.83;100.00;102369.84;5193198;28;20506;-67
2023/05/24 07:11:49;;;;;;;20.48;8.05;;;;;;;13.92;97.43;102368.31;5187989;28;20038;-68
2023/05/24 07:14:21;;;;;;;22.10;7.63;;;;;;;13.95;95.24;102376.81;5192787;28;20034;-68
2023/05/24 07:16:56;;;;;;;20.40;7.55;;;;;;;14.16;94.88;102374.34;5193921;28;20034;-68
2023/05/24 07:19:28;;;;;;;17.95;6.95;;;;;;;14.18;90.93;102371.63;5191461;28;20096;-68
2023/05/24 07:21:59;;;;;;;15.20;6.60;;;;;;;14.08;90.45;102376.72;5187670;28;20117;-69
2023/05/24 07:24:30;;;;;;;18.08;6.85;;;;;;;14.02;89.07;102383.31;5189143;28;20522;-68
2023/05/24 07:27:02;;;;;;;17.10;6.65;;;;;;;14.01;89.88;102372.88;5187237;28;20527;-68
2023/05/24 07:29:33;;;;;;;20.63;7.90;;;;;;;14.25;95.07;102378.94;5184489;28;20121;-69
2023/05/24 07:32:04;;;;;;;18.60;7.07;;;;;;;14.22;87.82;102359.88;5186709;28;20559;-69
2023/05/24 07:34:38;;;;;;;17.70;7.05;;;;;;;14.61;89.72;102377.09;5180392;28;20720;-68
2023/05/24 07:37:09;;;;;;;16.92;6.50;;;;;;;14.87;85.15;102372.44;5189114;28;20026;-68
2023/05/24 07:39:40;;;;;;;16.52;5.85;;;;;;;14.91;79.14;102375.66;5186051;28;20018;-69
2023/05/24 07:42:12;;;;;;;18.90;6.70;;;;;;;15.01;80.20;102376.63;5186909;28;20031;-69
2023/05/24 07:44:43;;;;;;;13.60;5.78;;;;;;;15.09;75.44;102375.03;5189476;28;20030;-68
2023/05/24 07:47:14;;;;;;;14.32;5.90;;;;;;;15.26;78.84;102376.31;5191702;28;20063;-68
2023/05/24 07:49:46;;;;;;;14.43;6.20;;;;;;;15.47;76.19;102384.34;5188925;28;20028;-68
2023/05/24 07:52:17;;;;;;;16.70;5.43;;;;;;;15.69;73.16;102378.16;5191405;28;20364;-69
2023/05/24 07:54:48;;;;;;;13.07;4.70;;;;;;;15.88;69.14;102379.31;5188227;28;20033;-68
2023/05/24 07:57:20;;;;;;;12.10;4.40;;;;;;;16.07;65.49;102383.91;5186230;28;20027;-68
2023/05/24 07:59:51;;;;;;;13.27;4.38;;;;;;;16.10;62.91;102367.75;5181757;28;20034;-69
2023/05/24 08:02:23;;;;;;;9.32;4.07;;;;;;;16.08;62.08;102388.19;5188822;28;20468;-68
2023/05/24 08:04:54;;;;;;;12.82;4.88;;;;;;;16.02;60.04;102381.59;5190447;28;20044;-68
2023/05/24 08:07:25;;;;;;;13.05;4.40;;;;;;;16.12;59.52;102379.88;5189240;28;20031;-68
2023/05/24 08:09:57;;;;;;;10.75;3.97;;;;;;;16.11;62.13;102378.22;5185738;28;20026;-69
2023/05/24 08:12:29;;;;;;;12.68;4.97;;;;;;;16.27;62.13;102378.59;5182835;28;20045;-69
2023/05/24 08:15:00;;;;;;;16.40;5.05;;;;;;;16.23;61.54;102389.56;5189049;28;20044;-68
2023/05/24 08:17:31;;;;;;;12.98;4.55;;;;;;;16.15;60.69;102378.78;5188788;28;20022;-68
2023/05/24 08:20:08;;;;;;;11.55;3.75;;;;;;;16.27;57.88;102375.94;5187164;28;20031;-68
2023/05/24 08:22:40;;;;;;;13.00;4.00;;;;;;;16.52;57.93;102381.81;5184707;28;20100;-68
2023/05/24 08:25:11;;;;;;;11.02;4.07;;;;;;;16.74;55.25;102384.31;5189931;28;20026;-68
2023/05/24 08:27:42;;;;;;;12.85;4.22;;;;;;;16.90;56.24;102382.97;5188215;28;20050;-68
2023/05/24 08:30:14;;;;;;;12.27;4.32;;;;;;;17.17;57.04;102367.31;5188333;28;20061;-68
2023/05/24 08:32:45;;;;;;;12.38;4.03;;;;;;;17.32;58.51;102367.75;5187916;28;20050;-68
2023/05/24 08:35:16;;;;;;;12.07;4.30;;;;;;;17.31;57.76;102363.41;5187757;28;20529;-70
2023/05/24 08:37:48;;;;;;;11.82;3.75;;;;;;;17.48;54.75;102373.34;5189860;28;20030;-69
2023/05/24 08:40:20;;;;;;;10.65;4.45;;;;;;;17.52;52.50;102368.59;5186233;28;20037;-69
2023/05/24 08:42:51;;;;;;;13.10;4.05;;;;;;;17.52;51.87;102358.00;5174501;28;20034;-70
2023/05/24 08:45:25;;;;;;;11.35;4.18;;;;;;;17.67;52.17;102353.13;5179015;28;20407;-68
2023/05/24 08:47:59;;;;;;;12.45;3.78;;;;;;;17.48;52.91;102365.38;5184820;28;20026;-69
2023/05/24 08:50:31;;;;;;;12.27;3.90;;;;;;;17.59;51.38;102359.13;5179604;28;20034;-69
2023/05/24 08:53:05;;;;;;;10.30;3.37;;;;;;;17.91;50.29;102345.59;5182469;28;20034;-69
2023/05/24 08:55:37;;;;;;;10.80;3.58;;;;;;;17.91;49.04;102344.75;5187155;28;20026;-68
2023/05/24 08:58:08;;;;;;;10.45;3.53;;;;;;;17.77;50.83;102347.84;5181406;28;20475;-69
2023/05/24 09:00:40;;;;;;;15.73;4.55;;;;;;;17.64;48.92;102343.63;5182424;28;20030;-69
2023/05/24 09:03:12;;;;;;;8.60;3.50;;;;;;;17.60;49.70;102346.72;5184631;28;20030;-69
2023/05/24 09:05:44;;;;;;;8.85;3.45;;;;;;;17.81;50.70;102336.00;5191463;28;20039;-68
2023/05/24 09:08:17;;;;;;;13.18;4.68;;;;;;;18.10;48.88;102335.94;5191369;28;20506;-69
2023/05/24 09:10:48;;;;;;;12.98;3.90;;;;;;;18.32;49.55;102337.41;5192931;28;20036;-69
2023/05/24 09:13:22;;;;;;;8.95;3.88;;;;;;;18.46;49.89;102344.91;5194100;28;20076;-69
2023/05/24 09:15:53;;;;;;;9.10;3.70;;;;;;;18.34;47.63;102343.44;5194245;28;20030;-69
2023/05/24 09:18:24;;;;;;;10.02;3.85;;;;;;;18.53;46.30;102340.72;5192097;28;20518;-69
2023/05/24 09:20:56;;;;;;;11.43;4.03;;;;;;;18.50;49.48;102341.00;5191638;28;20037;-69
2023/05/24 09:23:27;;;;;;;10.60;4.10;;;;;;;18.32;48.29;102342.72;5189739;28;20061;-69
2023/05/24 09:26:06;;;;;;;11.18;4.15;;;;;;;18.38;49.99;102343.00;5194906;28;20181;-69
2023/05/24 09:28:37;;;;;;;10.82;3.72;;;;;;;18.12;47.81;102342.78;5193927;28;20073;-69
2023/05/24 09:31:09;;;;;;;10.65;4.45;;;;;;;18.53;47.67;102346.00;5192750;28;20038;-69
2023/05/24 09:33:40;;;;;;;10.40;3.97;;;;;;;18.62;45.47;102347.78;5186129;28;20054;-70
2023/05/24 09:36:15;;;;;;;7.50;3.33;;;;;;;18.86;47.07;102352.56;5175712;28;20531;-69
2023/05/24 09:38:47;;;;;;;11.18;4.03;;;;;;;18.80;45.67;102337.25;5188633;28;20429;-69
2023/05/24 09:41:19;;;;;;;9.02;3.78;;;;;;;18.93;44.42;102332.41;5190976;28;20111;-69
2023/05/24 09:43:50;;;;;;;8.68;3.58;;;;;;;19.23;42.43;102337.56;5194242;28;20511;-69
2023/05/24 09:46:22;;;;;;;11.32;4.45;;;;;;;19.60;43.46;102340.91;5194040;28;20034;-69
2023/05/24 09:48:58;;;;;;;9.20;3.20;;;;;;;19.63;42.78;102335.31;5187992;28;20444;-69
2023/05/24 09:51:29;;;;;;;9.88;3.60;;;;;;;19.39;43.01;102335.88;5188097;28;20037;-69
2023/05/24 09:54:01;;;;;;;11.02;3.00;;;;;;;19.45;41.68;102337.94;5194307;28;20114;-69
2023/05/24 09:56:33;;;;;;;9.40;3.57;;;;;;;19.70;42.90;102327.56;5195291;28;20476;-69
2023/05/24 09:59:08;;;;;;;10.48;3.28;;;;;;;19.86;41.49;102333.00;5193266;28;20080;-69
2023/05/24 10:01:39;;;;;;;9.38;2.97;;;;;;;19.67;40.29;102323.38;5188049;28;20027;-69
2023/05/24 10:04:12;;;;;;;9.48;3.88;;;;;;;19.89;40.97;102326.56;5191102;28;20058;-69
2023/05/24 10:06:46;;;;;;;9.07;2.97;;;;;;;20.38;41.48;102329.50;5188782;28;20035;-69
2023/05/24 10:09:19;;;;;;;12.00;3.80;;;;;;;20.48;41.47;102321.41;5185222;28;20026;-69
2023/05/24 10:11:50;;;;;;;10.32;3.95;;;;;;;20.23;40.15;102337.25;5192582;28;20025;-70
2023/05/24 10:14:24;;;;;;;9.17;3.50;;;;;;;20.20;41.14;102326.09;5193532;28;20022;-69
2023/05/24 10:16:55;;;;;;;13.18;3.45;;;;;;;20.08;40.86;102323.69;5189008;28;20023;-70
2023/05/24 10:19:26;;;;;;;8.35;3.72;;;;;;;20.18;41.66;102326.22;5191093;28;20492;-69
2023/05/24 10:21:59;;;;;;;11.10;3.47;;;;;;;20.33;42.03;102329.97;5190192;28;20492;-69
2023/05/24 10:24:46;;;;;;;9.02;3.13;;;;;;;20.69;41.23;102327.19;5192914;28;20022;-69
2023/05/24 10:27:22;;;;;;;10.85;3.40;;;;;;;20.56;39.51;102324.13;5188743;28;20081;-69
2023/05/24 10:30:17;;;;;;;8.85;3.05;;;;;;;20.80;39.75;102318.06;5190396;28;20112;-69
2023/05/24 10:32:51;;;;;;;11.15;3.45;;;;;;;20.93;38.09;102320.28;5187051;28;20050;-69
2023/05/24 10:35:24;;;;;;;10.35;3.55;;;;;;;20.94;37.14;102306.78;5188135;28;20022;-70
2023/05/24 10:37:56;;;;;;;10.10;3.17;;;;;;;20.98;38.15;102323.28;5186734;28;20261;-69
2023/05/24 10:40:27;;;;;;;9.13;3.03;;;;;;;20.77;36.51;102324.56;5186468;28;20073;-69
2023/05/24 10:43:03;;;;;;;10.97;3.57;;;;;;;20.61;38.02;102313.84;5186496;28;20033;-69
2023/05/24 10:45:39;;;;;;;10.93;3.15;;;;;;;20.66;39.74;102322.19;5183884;28;20065;-69
2023/05/24 10:48:17;;;;;;;10.10;3.55;;;;;;;20.42;41.27;102323.72;5185599;28;20042;-69
2023/05/24 10:50:48;;;;;;;8.85;3.00;;;;;;;20.35;39.95;102309.38;5185100;28;20100;-69
2023/05/24 10:53:21;;;;;;;9.17;3.30;;;;;;;20.24;39.83;102316.78;5185634;28;20460;-69
2023/05/24 10:55:57;;;;;;;12.07;3.92;;;;;;;20.18;41.77;102319.06;5189527;28;20408;-69
2023/05/24 10:58:44;;;;;;;10.80;3.17;;;;;;;20.17;41.31;102316.59;5184148;28;20030;-69
2023/05/24 11:01:30;;;;;;;12.90;3.53;;;;;;;20.23;41.50;102309.78;5184238;28;20031;-69
2023/05/24 11:04:17;;;;;;;9.95;4.00;;;;;;;20.27;41.94;102311.16;5181769;28;20022;-69
2023/05/24 11:06:49;;;;;;;12.48;4.25;;;;;;;19.94;40.48;102313.59;5186975;28;20065;-69
2023/05/24 11:09:21;;;;;;;10.40;3.45;;;;;;;19.95;40.64;102317.09;5181531;28;20272;-69
2023/05/24 11:11:55;;;;;;;11.55;3.45;;;;;;;20.00;41.26;102309.47;5186947;28;20030;-69
2023/05/24 11:14:28;;;;;;;51.17;6.88;;;;;;;19.85;41.63;102317.19;5184133;28;20258;-69
2023/05/24 11:17:00;;;;;;;11.43;3.72;;;;;;;19.92;41.43;102318.22;5180301;28;20427;-69
2023/05/24 11:19:37;;;;;;;10.87;3.43;;;;;;;19.99;41.69;102300.66;5185971;28;20038;-69
2023/05/24 11:22:08;;;;;;;30.13;6.18;;;;;;;19.78;40.86;102317.00;5186923;28;20385;-69
2023/05/24 11:24:40;;;;;;;27.80;5.10;;;;;;;19.72;41.51;102319.44;5191190;28;20030;-69
2023/05/24 11:27:13;;;;;;;14.60;3.80;;;;;;;19.84;42.02;102320.84;5183588;28;20169;-69
2023/05/24 11:29:46;;;;;;;9.65;3.53;;;;;;;19.59;40.98;102307.34;5186077;28;20296;-69
2023/05/24 11:32:18;;;;;;;;;;;;;;;20.71;41.15;102314.53;5181192;28;20042;-69
2023/05/24 11:34:49;;;;;;;8.07;3.28;;;;;;;19.91;40.84;102312.09;5186075;28;19925;-69
2023/05/24 11:37:21;;;;;;;10.80;3.43;;;;;;;19.84;40.91;102316.34;5190846;28;20077;-69
2023/05/24 11:39:52;;;;;;;8.70;2.83;;;;;;;20.01;41.26;102312.00;5190054;28;20038;-69
2023/05/24 11:42:27;;;;;;;9.77;3.40;;;;;;;20.07;41.01;102311.34;5191702;28;20084;-71
2023/05/24 11:44:58;;;;;;;8.02;3.00;;;;;;;19.88;40.43;102308.91;5189645;28;20082;-70